Time;durP1;ratioP1;P1;durP2;ratioP2;P2;SDS_P1;SDS_P2;PMS_P1;PMS_P2;Temp;Humidity;BMP_temperature;BMP_pressure;BME280_temperature;BME280_humidity;BME280_pressure;Samples;Min_cycle;Max_cycle;Signal;HPM_P1;HPM_P2
2023/03/30 00:00:20;;;;;;;19.15;17.08;;;8.50;99.90;;;;;;5033320;28;20112;-57
2023/03/30 00:02:49;;;;;;;23.73;17.23;;;8.50;99.90;;;;;;5030380;28;20083;-58
2023/03/30 00:05:16;;;;;;;22.30;18.73;;;8.50;99.90;;;;;;5037784;28;20017;-58
2023/03/30 00:07:41;;;;;;;21.80;16.92;;;8.50;99.90;;;;;;5032786;28;20673;-58
2023/03/30 00:10:09;;;;;;;20.75;17.25;;;8.50;99.90;;;;;;5038369;28;20049;-56
2023/03/30 00:12:34;;;;;;;20.63;17.05;;;8.50;99.90;;;;;;5037958;28;20029;-58
2023/03/30 00:15:01;;;;;;;20.65;16.77;;;8.50;99.90;;;;;;5033467;28;20017;-58
2023/03/30 00:17:27;;;;;;;24.75;17.63;;;8.50;99.90;;;;;;5016798;28;20061;-57
2023/03/30 00:19:52;;;;;;;25.83;17.42;;;8.60;99.90;;;;;;5021158;28;20033;-58
2023/03/30 00:22:18;;;;;;;21.27;15.73;;;8.60;99.90;;;;;;5037407;28;20044;-57
2023/03/30 00:24:43;;;;;;;19.73;16.38;;;8.50;99.90;;;;;;5038210;28;20029;-59
2023/03/30 00:27:09;;;;;;;20.30;16.85;;;8.50;99.90;;;;;;5025466;28;20034;-56
2023/03/30 00:29:35;;;;;;;21.05;16.98;;;8.60;99.90;;;;;;5026554;28;20022;-59
2023/03/30 00:32:00;;;;;;;19.45;16.17;;;8.60;99.90;;;;;;5039228;28;20044;-57
2023/03/30 00:34:26;;;;;;;18.25;15.82;;;8.60;99.90;;;;;;5038891;28;20017;-56
2023/03/30 00:36:52;;;;;;;20.20;17.00;;;8.60;99.90;;;;;;5031366;28;20032;-58
2023/03/30 00:39:21;;;;;;;22.02;17.23;;;8.60;99.90;;;;;;5039501;28;20025;-56
2023/03/30 00:41:47;;;;;;;21.95;16.80;;;8.60;99.90;;;;;;5037027;28;20025;-56
2023/03/30 00:44:50;;;;;;;21.08;16.05;;;8.60;99.90;;;;;;5028782;28;20029;-57
2023/03/30 00:47:16;;;;;;;18.23;15.10;;;8.60;99.90;;;;;;5033206;28;20033;-56
2023/03/30 00:49:42;;;;;;;19.92;16.15;;;8.60;99.90;;;;;;5037514;28;20029;-58
2023/03/30 00:52:10;;;;;;;17.45;15.50;;;8.60;99.90;;;;;;5043978;28;20451;-57
2023/03/30 00:54:37;;;;;;;19.73;15.32;;;8.60;99.90;;;;;;5031376;28;20037;-60
2023/03/30 00:57:03;;;;;;;19.92;15.32;;;8.70;99.90;;;;;;5043822;28;20021;-59
2023/03/30 00:59:29;;;;;;;19.55;15.45;;;8.70;99.90;;;;;;5034524;28;20037;-58
2023/03/30 01:01:55;;;;;;;22.88;15.77;;;8.70;99.90;;;;;;5035796;28;20354;-58
2023/03/30 01:04:20;;;;;;;17.52;14.98;;;8.70;99.90;;;;;;5032694;28;20441;-58
2023/03/30 01:06:47;;;;;;;21.17;15.77;;;8.70;99.90;;;;;;5032239;28;20029;-59
2023/03/30 01:09:15;;;;;;;19.38;15.73;;;8.70;99.90;;;;;;5039068;28;20029;-58
2023/03/30 01:11:42;;;;;;;19.17;16.20;;;8.70;99.90;;;;;;5034178;28;20029;-58
2023/03/30 01:14:10;;;;;;;20.10;15.57;;;8.80;99.90;;;;;;5028527;28;20573;-59
2023/03/30 01:17:00;;;;;;;22.83;14.23;;;8.70;99.90;;;;;;5032112;28;20491;-58
2023/03/30 01:19:57;;;;;;;18.73;15.43;;;8.70;99.90;;;;;;5029021;28;20364;-59
2023/03/30 01:22:29;;;;;;;;;;;8.80;99.90;;;;;;5029356;28;20026;-59
2023/03/30 01:25:06;;;;;;;20.13;14.38;;;8.70;99.90;;;;;;5038949;28;19909;-58
2023/03/30 01:28:03;;;;;;;17.58;13.82;;;8.80;99.90;;;;;;5036542;28;20037;-58
2023/03/30 01:31:03;;;;;;;19.20;14.50;;;8.80;99.90;;;;;;5033169;28;20345;-59
2023/03/30 01:34:06;;;;;;;16.58;13.80;;;8.80;99.90;;;;;;5036450;28;20110;-58
2023/03/30 01:37:23;;;;;;;16.05;13.57;;;8.80;99.90;;;;;;5027834;28;20496;-58
2023/03/30 01:40:26;;;;;;;18.63;13.55;;;8.80;99.90;;;;;;4993126;28;20297;-56
2023/03/30 01:42:57;;;;;;;17.25;13.80;;;8.80;99.90;;;;;;5041036;28;20035;-57
2023/03/30 01:45:42;;;;;;;18.63;13.98;;;8.80;99.90;;;;;;5034114;28;20349;-58
2023/03/30 01:48:10;;;;;;;19.15;13.63;;;8.80;99.90;;;;;;5025020;28;20621;-58
2023/03/30 01:50:51;;;;;;;20.30;15.02;;;8.80;99.90;;;;;;5029559;28;20022;-56
2023/03/30 01:53:33;;;;;;;16.33;13.20;;;8.80;99.90;;;;;;5031933;28;20106;-58
2023/03/30 01:56:32;;;;;;;17.10;13.52;;;8.80;99.90;;;;;;5026749;28;20034;-60
2023/03/30 01:59:05;;;;;;;19.77;14.52;;;8.80;99.90;;;;;;5033540;28;20521;-57
2023/03/30 02:01:35;;;;;;;17.85;13.50;;;8.90;99.90;;;;;;5025705;28;20038;-58
2023/03/30 02:04:03;;;;;;;19.27;13.45;;;8.90;99.90;;;;;;5037685;28;20022;-57
2023/03/30 02:06:50;;;;;;;17.25;14.00;;;8.90;99.90;;;;;;5040788;28;20417;-56
2023/03/30 02:09:22;;;;;;;17.15;12.95;;;8.90;99.90;;;;;;5031411;28;20348;-59
2023/03/30 02:11:51;;;;;;;18.58;13.70;;;8.90;99.90;;;;;;5032797;28;20472;-59
2023/03/30 02:14:19;;;;;;;16.20;13.43;;;8.90;99.90;;;;;;5034742;28;20033;-55
2023/03/30 02:16:50;;;;;;;16.23;13.75;;;8.80;99.90;;;;;;5035322;28;20033;-58
2023/03/30 02:19:16;;;;;;;17.55;12.80;;;8.90;99.90;;;;;;5035774;28;20017;-59
2023/03/30 02:21:42;;;;;;;17.23;13.30;;;8.80;99.90;;;;;;5039720;28;20605;-58
2023/03/30 02:24:17;;;;;;;17.88;13.40;;;8.80;99.90;;;;;;5035300;28;20539;-60
2023/03/30 02:26:46;;;;;;;17.65;13.73;;;8.80;99.90;;;;;;5035585;28;20091;-59
2023/03/30 02:29:13;;;;;;;19.83;14.02;;;8.80;99.90;;;;;;5032413;28;20035;-59
2023/03/30 02:31:39;;;;;;;20.02;13.68;;;8.90;99.90;;;;;;5036280;28;20037;-59
2023/03/30 02:34:28;;;;;;;21.17;13.48;;;8.80;99.90;;;;;;5030901;28;20017;-60
2023/03/30 02:37:04;;;;;;;20.20;13.90;;;8.80;99.90;;;;;;5029539;28;20029;-60
2023/03/30 02:39:43;;;;;;;17.95;13.85;;;8.90;99.90;;;;;;5035381;28;20613;-60
2023/03/30 02:42:18;;;;;;;16.45;13.50;;;8.80;99.90;;;;;;5023602;28;20048;-59
2023/03/30 02:45:09;;;;;;;16.10;13.70;;;8.80;99.90;;;;;;5028724;28;20030;-59
2023/03/30 02:47:45;;;;;;;18.50;13.65;;;8.80;99.90;;;;;;5035809;28;20044;-59
2023/03/30 02:50:47;;;;;;;19.52;14.30;;;8.80;99.90;;;;;;5025418;28;20036;-60
2023/03/30 02:53:31;;;;;;;19.98;14.43;;;8.80;99.90;;;;;;5030839;28;20076;-60
2023/03/30 02:56:22;;;;;;;16.63;12.73;;;8.80;99.90;;;;;;5035883;28;20122;-60
2023/03/30 02:59:31;;;;;;;22.25;13.77;;;8.80;99.90;;;;;;5029848;28;20048;-59
2023/03/30 03:02:09;;;;;;;19.17;14.70;;;8.80;99.90;;;;;;5026418;28;20033;-59
2023/03/30 03:04:35;;;;;;;18.45;13.98;;;8.70;99.90;;;;;;5037395;28;20505;-60
2023/03/30 03:07:01;;;;;;;21.10;15.90;;;8.80;99.90;;;;;;5037930;28;20399;-59
2023/03/30 03:09:27;;;;;;;21.10;14.63;;;8.80;99.90;;;;;;5030716;28;20116;-59
2023/03/30 03:11:54;;;;;;;21.05;14.80;;;8.80;99.90;;;;;;5032724;28;20025;-59
2023/03/30 03:14:19;;;;;;;17.27;13.52;;;8.80;99.90;;;;;;5036890;28;20025;-59
2023/03/30 03:16:46;;;;;;;17.98;13.85;;;8.70;99.90;;;;;;5035784;28;20037;-57
2023/03/30 03:19:12;;;;;;;22.15;14.50;;;8.80;99.90;;;;;;5036434;28;20036;-60
2023/03/30 03:21:38;;;;;;;20.15;14.05;;;8.70;99.90;;;;;;5037993;28;20040;-59
2023/03/30 03:24:05;;;;;;;18.40;14.95;;;8.80;99.90;;;;;;5036310;28;20033;-60
2023/03/30 03:26:30;;;;;;;19.90;14.43;;;8.80;99.90;;;;;;5032096;28;20034;-59
2023/03/30 03:28:56;;;;;;;20.08;14.23;;;8.80;99.90;;;;;;5027812;28;20033;-59
2023/03/30 03:31:23;;;;;;;19.35;13.68;;;8.70;99.90;;;;;;5031266;28;20061;-59
2023/03/30 03:33:49;;;;;;;21.55;15.48;;;8.70;99.90;;;;;;5032133;28;20074;-59
2023/03/30 03:36:15;;;;;;;20.50;15.07;;;8.70;99.90;;;;;;5019385;28;20072;-59
2023/03/30 03:38:40;;;;;;;22.25;15.27;;;8.70;99.90;;;;;;5029328;28;20396;-59
2023/03/30 03:41:07;;;;;;;21.40;14.07;;;8.70;99.90;;;;;;5029971;28;20508;-59
2023/03/30 03:43:32;;;;;;;18.73;14.85;;;8.70;99.90;;;;;;5028714;28;20403;-59
2023/03/30 03:45:58;;;;;;;19.30;14.25;;;8.70;99.90;;;;;;5037935;28;20111;-60
2023/03/30 03:48:24;;;;;;;20.52;14.80;;;8.60;99.90;;;;;;5039555;28;20055;-59
2023/03/30 03:50:55;;;;;;;19.00;14.55;;;8.60;99.90;;;;;;5031366;28;20029;-60
2023/03/30 03:53:22;;;;;;;19.90;14.00;;;8.50;99.90;;;;;;5033780;28;20028;-59
2023/03/30 03:55:48;;;;;;;16.38;13.55;;;8.50;99.90;;;;;;5040368;28;20086;-60
2023/03/30 03:58:15;;;;;;;19.58;15.43;;;8.50;99.90;;;;;;5034402;28;20087;-59
2023/03/30 04:00:41;;;;;;;19.38;14.32;;;8.50;99.90;;;;;;5044370;28;20029;-59
2023/03/30 04:03:07;;;;;;;18.83;13.63;;;8.50;99.90;;;;;;5036197;28;20055;-58
2023/03/30 04:05:33;;;;;;;18.85;14.43;;;8.50;99.90;;;;;;5044907;28;20027;-59
2023/03/30 04:07:59;;;;;;;21.83;15.10;;;8.50;99.90;;;;;;5039561;28;20033;-59
2023/03/30 04:10:24;;;;;;;18.13;13.40;;;8.50;99.90;;;;;;5037687;28;20603;-60
2023/03/30 04:12:50;;;;;;;20.25;14.65;;;8.50;99.90;;;;;;5039495;28;20033;-58
2023/03/30 04:15:15;;;;;;;18.50;13.98;;;8.50;99.90;;;;;;5037634;28;20420;-59
2023/03/30 04:17:43;;;;;;;17.25;14.80;;;8.50;99.90;;;;;;5044991;28;20662;-59
2023/03/30 04:20:11;;;;;;;17.42;13.52;;;8.50;99.90;;;;;;5033457;28;20064;-57
2023/03/30 04:22:40;;;;;;;20.45;15.48;;;8.50;99.90;;;;;;5041026;28;20021;-60
2023/03/30 04:25:10;;;;;;;20.38;14.52;;;8.50;99.90;;;;;;5031552;28;20551;-59
2023/03/30 04:27:36;;;;;;;17.52;14.00;;;8.50;99.90;;;;;;5034794;28;20458;-59
2023/03/30 04:30:04;;;;;;;18.65;13.35;;;8.50;99.90;;;;;;5031470;28;20083;-59
2023/03/30 04:32:33;;;;;;;19.38;14.55;;;8.50;99.90;;;;;;5031181;28;20045;-59
2023/03/30 04:35:00;;;;;;;18.58;13.65;;;8.50;99.90;;;;;;5036982;28;20040;-59
2023/03/30 04:37:29;;;;;;;18.15;13.15;;;8.50;99.90;;;;;;5039825;28;20435;-59
2023/03/30 04:39:59;;;;;;;21.20;14.93;;;8.50;99.90;;;;;;5030913;28;20036;-58
2023/03/30 04:42:29;;;;;;;19.58;14.55;;;8.50;99.90;;;;;;5040969;28;20159;-59
2023/03/30 04:44:58;;;;;;;22.33;15.15;;;8.50;99.90;;;;;;5023175;28;20119;-58
2023/03/30 04:47:25;;;;;;;16.85;14.23;;;8.50;99.90;;;;;;5040556;28;20029;-58
2023/03/30 04:49:51;;;;;;;19.33;14.73;;;8.50;99.90;;;;;;5040007;28;20076;-60
2023/03/30 04:52:17;;;;;;;18.42;14.30;;;8.50;99.90;;;;;;5040836;28;20021;-59
2023/03/30 04:54:43;;;;;;;16.60;13.45;;;8.60;99.90;;;;;;5038084;28;20033;-59
2023/03/30 04:57:09;;;;;;;18.00;13.57;;;8.50;99.90;;;;;;5040530;28;20029;-58
2023/03/30 04:59:35;;;;;;;18.27;14.65;;;8.50;99.90;;;;;;5037386;28;20037;-60
2023/03/30 05:02:02;;;;;;;18.52;14.35;;;8.50;99.90;;;;;;5036299;28;20503;-59
2023/03/30 05:04:27;;;;;;;20.55;13.80;;;8.60;99.90;;;;;;5025165;28;20056;-59
2023/03/30 05:06:54;;;;;;;16.75;13.82;;;8.50;99.90;;;;;;5035649;28;20543;-57
2023/03/30 05:09:20;;;;;;;21.08;15.00;;;8.60;99.90;;;;;;5034277;28;20442;-59
2023/03/30 05:11:46;;;;;;;18.92;13.93;;;8.50;99.90;;;;;;5032302;28;20083;-58
2023/03/30 05:14:11;;;;;;;16.42;13.25;;;8.50;99.90;;;;;;5036563;28;20506;-56
2023/03/30 05:16:37;;;;;;;20.23;12.93;;;8.50;99.90;;;;;;5031175;28;20111;-58
2023/03/30 05:19:02;;;;;;;17.75;13.45;;;8.50;99.90;;;;;;5038639;28;20400;-59
2023/03/30 05:21:30;;;;;;;16.33;12.73;;;8.50;99.90;;;;;;5032621;28;20032;-58
2023/03/30 05:23:56;;;;;;;17.35;13.23;;;8.50;99.90;;;;;;5040599;28;20575;-59
2023/03/30 05:26:22;;;;;;;18.70;12.95;;;8.60;99.90;;;;;;5035736;28;20056;-55
2023/03/30 05:28:48;;;;;;;20.58;13.50;;;8.60;99.90;;;;;;5038908;28;20446;-58
2023/03/30 05:31:14;;;;;;;21.85;14.02;;;8.60;99.90;;;;;;5039625;28;20025;-59
2023/03/30 05:33:39;;;;;;;19.10;12.63;;;8.60;99.90;;;;;;5031498;28;20104;-58
2023/03/30 05:36:05;;;;;;;15.73;12.15;;;8.60;99.90;;;;;;5038975;28;20055;-55
2023/03/30 05:38:31;;;;;;;18.67;13.40;;;8.60;99.90;;;;;;5031231;28;20032;-59
2023/03/30 05:40:57;;;;;;;15.50;13.50;;;8.60;99.90;;;;;;5035235;28;20409;-58
2023/03/30 05:43:23;;;;;;;16.67;12.90;;;8.60;99.90;;;;;;5040976;28;20104;-59
2023/03/30 05:45:48;;;;;;;17.05;12.40;;;8.60;99.90;;;;;;5036282;28;20048;-59
2023/03/30 05:48:14;;;;;;;16.10;13.88;;;8.60;99.90;;;;;;5028499;28;20360;-58
2023/03/30 05:50:41;;;;;;;16.15;12.80;;;8.60;99.90;;;;;;5036033;28;20594;-58
2023/03/30 05:53:07;;;;;;;18.80;12.50;;;8.70;99.90;;;;;;5030842;28;20494;-58
2023/03/30 05:55:33;;;;;;;19.88;13.90;;;8.70;99.90;;;;;;5030890;28;20029;-57
2023/03/30 05:57:58;;;;;;;15.65;12.40;;;8.70;99.90;;;;;;5037845;28;20112;-56
2023/03/30 06:00:24;;;;;;;13.68;10.93;;;8.70;99.90;;;;;;5040905;28;20560;-58
2023/03/30 06:02:50;;;;;;;16.63;11.70;;;8.80;99.90;;;;;;5035537;28;20539;-58
2023/03/30 06:05:17;;;;;;;16.40;11.93;;;8.70;99.90;;;;;;5039225;28;20128;-56
2023/03/30 06:07:44;;;;;;;14.85;12.13;;;8.80;99.90;;;;;;5037345;28;20245;-57
2023/03/30 06:10:11;;;;;;;16.80;10.65;;;8.80;99.90;;;;;;5039413;28;20463;-59
2023/03/30 06:12:38;;;;;;;16.00;11.48;;;8.80;99.90;;;;;;5036990;28;20037;-59
2023/03/30 06:15:04;;;;;;;17.15;11.05;;;8.80;99.90;;;;;;5042671;28;20035;-58
2023/03/30 06:17:30;;;;;;;15.10;10.13;;;8.80;99.90;;;;;;5040783;28;20029;-59
2023/03/30 06:19:56;;;;;;;12.82;9.50;;;8.80;99.90;;;;;;5037580;28;20033;-58
2023/03/30 06:22:22;;;;;;;15.63;10.35;;;8.80;99.90;;;;;;5036020;28;20244;-58
2023/03/30 06:24:47;;;;;;;13.30;9.90;;;8.90;99.90;;;;;;5036324;28;20022;-58
2023/03/30 06:27:13;;;;;;;13.88;9.38;;;8.90;99.90;;;;;;5036589;28;20031;-59
2023/03/30 06:29:38;;;;;;;12.93;9.25;;;8.90;99.90;;;;;;5035030;28;20048;-56
2023/03/30 06:32:04;;;;;;;13.90;9.80;;;8.90;99.90;;;;;;5037080;28;20033;-55
2023/03/30 06:34:30;;;;;;;11.82;8.65;;;9.00;99.90;;;;;;5036923;28;20032;-58
2023/03/30 06:36:56;;;;;;;13.15;9.55;;;9.00;99.90;;;;;;5036758;28;20033;-58
2023/03/30 06:39:22;;;;;;;13.75;9.45;;;9.00;99.90;;;;;;5038721;28;20084;-58
2023/03/30 06:41:48;;;;;;;10.60;9.48;;;9.10;99.90;;;;;;5034292;28;20037;-58
2023/03/30 06:44:14;;;;;;;15.15;10.52;;;9.10;99.90;;;;;;5036610;28;20123;-54
2023/03/30 06:46:40;;;;;;;14.35;9.80;;;9.10;99.90;;;;;;5029737;28;20565;-56
2023/03/30 06:49:06;;;;;;;11.50;9.02;;;9.20;99.90;;;;;;5042375;28;20164;-57
2023/03/30 06:51:35;;;;;;;14.55;9.77;;;9.30;99.90;;;;;;5032433;28;20029;-58
2023/03/30 06:54:01;;;;;;;11.50;9.13;;;9.30;99.90;;;;;;5036357;28;20392;-59
2023/03/30 06:56:27;;;;;;;13.32;9.23;;;9.40;99.90;;;;;;5033137;28;20029;-55
2023/03/30 06:58:52;;;;;;;12.02;8.52;;;9.40;99.90;;;;;;5036296;28;20029;-58
2023/03/30 07:01:18;;;;;;;12.70;9.20;;;9.50;99.90;;;;;;5027268;28;20062;-56
2023/03/30 07:03:44;;;;;;;12.05;9.57;;;9.50;99.90;;;;;;5035150;28;20034;-57
2023/03/30 07:06:11;;;;;;;13.15;9.18;;;9.60;99.90;;;;;;5037603;28;20037;-58
2023/03/30 07:08:37;;;;;;;15.82;9.80;;;9.70;99.90;;;;;;5034726;28;20037;-56
2023/03/30 07:11:04;;;;;;;14.23;9.65;;;9.80;99.90;;;;;;5028243;28;20522;-58
2023/03/30 07:13:30;;;;;;;10.38;7.53;;;9.80;99.90;;;;;;5037540;28;20028;-58
2023/03/30 07:15:55;;;;;;;11.13;8.32;;;9.90;99.90;;;;;;5025521;28;20508;-57
2023/03/30 07:18:21;;;;;;;13.13;8.20;;;10.00;99.90;;;;;;5039644;28;20021;-57
2023/03/30 07:20:46;;;;;;;12.30;8.10;;;10.00;99.90;;;;;;5027733;28;20018;-55
2023/03/30 07:23:12;;;;;;;10.98;7.95;;;10.20;99.90;;;;;;5036696;28;20056;-58
2023/03/30 07:25:40;;;;;;;11.40;7.63;;;10.30;99.90;;;;;;5030237;28;20096;-58
2023/03/30 07:28:05;;;;;;;12.48;7.68;;;10.30;99.90;;;;;;5029143;28;20021;-56
2023/03/30 07:30:34;;;;;;;9.30;7.70;;;10.40;99.90;;;;;;5034339;28;20048;-54
2023/03/30 07:33:00;;;;;;;13.05;8.15;;;10.40;99.90;;;;;;5030321;28;20183;-55
2023/03/30 07:35:26;;;;;;;15.68;7.40;;;10.50;99.90;;;;;;5037741;28;20029;-57
2023/03/30 07:37:51;;;;;;;10.13;7.88;;;10.40;99.90;;;;;;5035080;28;20158;-56
2023/03/30 07:40:18;;;;;;;10.15;6.63;;;10.50;99.90;;;;;;5036776;28;20088;-58
2023/03/30 07:42:44;;;;;;;8.38;6.57;;;10.50;99.90;;;;;;5035420;28;20056;-58
2023/03/30 07:45:10;;;;;;;9.98;7.38;;;10.50;99.90;;;;;;5033206;28;20029;-58
2023/03/30 07:47:36;;;;;;;11.82;6.65;;;10.60;99.90;;;;;;5025185;28;20022;-57
2023/03/30 07:50:02;;;;;;;10.38;6.63;;;10.60;99.90;;;;;;5034383;28;20510;-55
2023/03/30 07:52:28;;;;;;;9.50;6.00;;;10.60;99.90;;;;;;5029012;28;20033;-57
2023/03/30 07:54:54;;;;;;;6.63;5.93;;;10.70;99.90;;;;;;5030467;28;20029;-52
2023/03/30 07:57:21;;;;;;;9.40;6.25;;;10.70;99.90;;;;;;5037488;28;20024;-58
2023/03/30 07:59:46;;;;;;;11.93;5.93;;;10.80;99.90;;;;;;5026916;28;20025;-55
2023/03/30 08:02:13;;;;;;;10.32;6.57;;;10.80;99.90;;;;;;5037076;28;20029;-58
2023/03/30 08:04:40;;;;;;;10.02;6.18;;;10.90;99.90;;;;;;5038448;28;20037;-59
2023/03/30 08:07:06;;;;;;;9.48;6.55;;;11.00;99.90;;;;;;5037339;28;20067;-59
2023/03/30 08:09:32;;;;;;;8.88;5.93;;;11.10;99.90;;;;;;5036758;28;20069;-56
2023/03/30 08:11:59;;;;;;;10.25;6.35;;;11.10;99.90;;;;;;5035125;28;20243;-56
2023/03/30 08:14:26;;;;;;;7.55;6.07;;;11.30;99.90;;;;;;5036623;28;20533;-59
2023/03/30 08:16:52;;;;;;;12.43;6.18;;;11.30;99.90;;;;;;5035360;28;20037;-59
2023/03/30 08:19:18;;;;;;;9.63;5.82;;;11.50;99.90;;;;;;5041184;28;20029;-55
2023/03/30 08:21:44;;;;;;;8.63;5.90;;;11.50;99.90;;;;;;5036980;28;20483;-58
2023/03/30 08:24:09;;;;;;;8.18;5.93;;;11.70;99.90;;;;;;5027580;28;20044;-56
2023/03/30 08:26:36;;;;;;;7.38;6.13;;;11.70;99.90;;;;;;5039935;28;20041;-58
2023/03/30 08:29:02;;;;;;;6.70;5.45;;;11.90;99.90;;;;;;5031710;28;20132;-56
2023/03/30 08:31:31;;;;;;;7.40;5.18;;;12.20;99.90;;;;;;5039336;28;20029;-57
2023/03/30 08:33:58;;;;;;;7.13;5.90;;;12.30;99.90;;;;;;5031870;28;20028;-57
2023/03/30 08:36:23;;;;;;;9.82;4.90;;;12.30;99.90;;;;;;5033507;28;20018;-59
2023/03/30 08:38:49;;;;;;;7.93;4.82;;;12.40;99.90;;;;;;5032723;28;20072;-57
2023/03/30 08:41:27;;;;;;;6.30;4.70;;;12.40;99.90;;;;;;5033590;28;20149;-56
2023/03/30 08:44:12;;;;;;;7.68;5.00;;;12.50;99.90;;;;;;5028960;28;20099;-55
2023/03/30 08:46:39;;;;;;;10.00;4.38;;;12.70;99.90;;;;;;5039016;28;20042;-56
2023/03/30 08:49:12;;;;;;;5.63;4.38;;;12.80;99.90;;;;;;5040526;28;20108;-55
2023/03/30 08:51:38;;;;;;;7.88;4.47;;;12.90;99.90;;;;;;5037428;28;20445;-57
2023/03/30 08:54:05;;;;;;;6.90;5.03;;;13.00;99.90;;;;;;5032082;28;20060;-58
2023/03/30 08:56:38;;;;;;;9.73;4.28;;;13.10;99.90;;;;;;5037289;28;20017;-54
2023/03/30 08:59:21;;;;;;;8.32;4.57;;;13.20;99.90;;;;;;5030319;28;20068;-58
2023/03/30 09:02:05;;;;;;;8.68;4.35;;;13.40;99.90;;;;;;5031837;28;20029;-55
2023/03/30 09:05:03;;;;;;;7.10;3.83;;;13.50;99.90;;;;;;5035326;28;20025;-55
2023/03/30 09:07:41;;;;;;;11.07;4.30;;;13.70;99.90;;;;;;5033650;28;20044;-56
2023/03/30 09:10:12;;;;;;;4.63;3.70;;;14.00;99.90;;;;;;5035069;28;20495;-57
2023/03/30 09:12:42;;;;;;;8.63;3.70;;;14.10;99.90;;;;;;5037792;28;20119;-53
2023/03/30 09:15:26;;;;;;;5.28;3.58;;;14.30;99.90;;;;;;5033091;28;20029;-56
2023/03/30 09:18:00;;;;;;;9.52;3.30;;;14.40;99.90;;;;;;5040752;28;20097;-52
2023/03/30 09:20:31;;;;;;;4.70;3.63;;;14.50;99.90;;;;;;5038652;28;20079;-54
2023/03/30 09:23:01;;;;;;;4.90;3.20;;;14.50;99.90;;;;;;5037603;28;20034;-57
2023/03/30 09:25:52;;;;;;;4.32;3.00;;;14.80;99.90;;;;;;5039848;28;20041;-58
2023/03/30 09:28:21;;;;;;;9.45;3.63;;;15.10;99.90;;;;;;5028112;28;20256;-54
2023/03/30 09:31:07;;;;;;;3.97;2.80;;;15.20;99.90;;;;;;5038320;28;20586;-57
2023/03/30 09:33:51;;;;;;;;;;;15.10;99.90;;;;;;5034691;28;20066;-57
2023/03/30 09:36:43;;;;;;;7.82;3.28;;;15.10;99.90;;;;;;5034825;28;19916;-55
2023/03/30 09:39:16;;;;;;;6.47;3.28;;;14.80;99.90;;;;;;5033355;28;20064;-57
2023/03/30 09:41:55;;;;;;;7.65;3.63;;;14.70;99.90;;;;;;5035843;28;20534;-57
2023/03/30 09:44:32;;;;;;;4.57;3.53;;;14.60;99.90;;;;;;5035735;28;20033;-57
2023/03/30 09:46:59;;;;;;;7.90;4.32;;;14.40;99.90;;;;;;5037989;28;20545;-57
2023/03/30 09:49:36;;;;;;;6.20;3.50;;;14.40;99.90;;;;;;5031522;28;20025;-57
2023/03/30 09:52:06;;;;;;;4.53;3.45;;;14.30;99.90;;;;;;5038747;28;20037;-58
2023/03/30 09:54:40;;;;;;;5.00;3.38;;;14.10;99.90;;;;;;5032193;28;20045;-57
2023/03/30 09:57:30;;;;;;;10.93;3.75;;;14.00;99.90;;;;;;5038431;28;20051;-58
2023/03/30 09:59:57;;;;;;;6.72;4.22;;;13.80;99.90;;;;;;5025466;28;20516;-54
2023/03/30 10:02:26;;;;;;;6.25;4.15;;;13.70;99.90;;;;;;5031903;28;20037;-56
2023/03/30 10:04:52;;;;;;;8.30;4.50;;;13.70;99.90;;;;;;5038969;28;20033;-56
2023/03/30 10:07:28;;;;;;;8.30;4.15;;;13.60;99.90;;;;;;5032766;28;20035;-58
2023/03/30 10:09:54;;;;;;;7.32;4.20;;;13.50;99.90;;;;;;5025816;28;20391;-58
2023/03/30 10:12:24;;;;;;;5.57;4.38;;;13.50;99.90;;;;;;5031856;28;20025;-59
2023/03/30 10:15:00;;;;;;;5.70;4.63;;;13.50;99.90;;;;;;5035291;28;20032;-58
2023/03/30 10:17:35;;;;;;;4.45;4.03;;;13.60;99.90;;;;;;5026926;28;20109;-58
2023/03/30 10:20:25;;;;;;;8.10;3.80;;;13.70;99.90;;;;;;5035355;28;20400;-58
2023/03/30 10:23:11;;;;;;;6.90;4.05;;;13.90;99.90;;;;;;5039789;28;20029;-56
2023/03/30 10:25:40;;;;;;;8.63;4.18;;;14.00;99.90;;;;;;5038835;28;20108;-58
2023/03/30 10:28:16;;;;;;;3.90;3.50;;;14.00;99.90;;;;;;5039022;28;20072;-56
2023/03/30 10:30:51;;;;;;;6.70;3.80;;;14.00;99.90;;;;;;5037095;28;20041;-57
2023/03/30 10:33:16;;;;;;;4.28;3.80;;;14.00;99.90;;;;;;5032728;28;20139;-58
2023/03/30 10:35:42;;;;;;;4.18;3.38;;;14.10;99.90;;;;;;5038750;28;20112;-58
2023/03/30 10:38:12;;;;;;;7.40;3.13;;;14.20;99.90;;;;;;5035034;28;20057;-58
2023/03/30 10:40:40;;;;;;;6.03;3.17;;;14.40;99.90;;;;;;5039028;28;20379;-54
2023/03/30 10:43:23;;;;;;;4.13;2.97;;;14.50;99.90;;;;;;5017915;28;20017;-58
2023/03/30 10:45:52;;;;;;;4.38;2.60;;;14.70;99.90;;;;;;5029680;28;20033;-55
2023/03/30 10:48:27;;;;;;;4.07;2.90;;;14.90;99.90;;;;;;5038382;28;20040;-54
2023/03/30 10:51:30;;;;;;;3.72;2.50;;;15.00;99.90;;;;;;5036751;28;20035;-57
2023/03/30 10:54:17;;;;;;;7.35;2.35;;;15.10;99.90;;;;;;5035361;28;20040;-58
2023/03/30 10:57:16;;;;;;;4.82;2.47;;;15.00;99.90;;;;;;5036300;28;20055;-56
2023/03/30 11:00:08;;;;;;;2.97;2.03;;;14.80;99.90;;;;;;5028290;28;20037;-55
2023/03/30 11:03:11;;;;;;;2.33;1.90;;;14.70;99.90;;;;;;5038070;28;20063;-59
2023/03/30 11:05:41;;;;;;;4.45;1.95;;;14.80;99.90;;;;;;5038137;28;20029;-58
2023/03/30 11:08:14;;;;;;;2.22;1.50;;;14.80;99.90;;;;;;5028863;28;20013;-59
2023/03/30 11:10:46;;;;;;;5.05;1.90;;;14.80;99.90;;;;;;5034401;28;20033;-58
2023/03/30 11:13:40;;;;;;;1.58;1.30;;;14.80;99.90;;;;;;5029429;28;20033;-56
2023/03/30 11:16:20;;;;;;;4.47;1.90;;;14.80;99.90;;;;;;5030789;28;20055;-58
2023/03/30 11:18:58;;;;;;;4.70;1.95;;;14.90;99.90;;;;;;5036996;28;20017;-56
2023/03/30 11:21:30;;;;;;;6.30;1.67;;;15.00;99.90;;;;;;5036925;28;20025;-57
2023/03/30 11:24:04;;;;;;;3.30;1.52;;;15.10;99.90;;;;;;5038995;28;20039;-56
2023/03/30 11:26:36;;;;;;;3.28;1.10;;;15.20;99.90;;;;;;5040498;28;20070;-51
2023/03/30 11:29:10;;;;;;;5.15;1.70;;;15.20;99.90;;;;;;5034700;28;20033;-55
2023/03/30 11:32:10;;;;;;;2.63;1.52;;;15.30;99.90;;;;;;5040951;28;20056;-57
2023/03/30 11:34:57;;;;;;;3.58;1.25;;;15.30;99.90;;;;;;5033387;28;20151;-58
2023/03/30 11:37:34;;;;;;;3.33;1.25;;;15.20;99.90;;;;;;5021886;28;20041;-58
2023/03/30 11:40:28;;;;;;;3.33;1.17;;;15.10;99.90;;;;;;5030368;28;20026;-55
2023/03/30 11:42:54;;;;;;;2.92;1.25;;;14.90;99.90;;;;;;5034360;28;20022;-55
2023/03/30 11:45:42;;;;;;;4.28;1.45;;;14.80;99.90;;;;;;5030682;28;20017;-54
2023/03/30 11:48:16;;;;;;;4.75;1.20;;;14.70;99.90;;;;;;5033247;28;20029;-56
2023/03/30 11:51:00;;;;;;;5.13;2.00;;;14.40;99.90;;;;;;5027661;28;20455;-57
2023/03/30 11:53:44;;;;;;;3.25;1.10;;;14.20;99.90;;;;;;5027303;28;20388;-57
2023/03/30 11:56:21;;;;;;;4.47;1.90;;;14.20;99.90;;;;;;5036173;28;20502;-59
2023/03/30 11:59:08;;;;;;;8.85;1.80;;;14.10;99.90;;;;;;5027003;28;20033;-58
2023/03/30 12:02:10;;;;;;;7.45;2.13;;;14.10;99.90;;;;;;5033364;28;20033;-59
2023/03/30 12:04:46;;;;;;;8.32;1.80;;;14.10;99.90;;;;;;5018471;28;20387;-56
2023/03/30 12:07:38;;;;;;;5.03;1.45;;;14.20;99.90;;;;;;5021942;28;20104;-57
2023/03/30 12:10:28;;;;;;;3.42;1.20;;;14.10;99.90;;;;;;5029668;28;20029;-56
2023/03/30 12:12:55;;;;;;;6.40;1.83;;;13.80;99.90;;;;;;5031804;28;20073;-58
2023/03/30 12:15:25;;;;;;;5.75;1.15;;;13.50;99.90;;;;;;5030098;28;20021;-58
2023/03/30 12:18:28;;;;;;;1.63;1.15;;;13.20;99.90;;;;;;5025364;28;20076;-53
2023/03/30 12:21:15;;;;;;;6.63;2.05;;;13.10;99.90;;;;;;5035636;28;20517;-57
2023/03/30 12:23:55;;;;;;;5.40;1.92;;;12.90;99.90;;;;;;5030736;28;20029;-59
2023/03/30 12:26:28;;;;;;;5.50;1.70;;;12.80;99.90;;;;;;5036097;28;20070;-58
2023/03/30 12:29:03;;;;;;;6.05;2.10;;;12.80;99.90;;;;;;5028722;28;20033;-55
2023/03/30 12:31:55;;;;;;;5.70;2.10;;;12.70;99.90;;;;;;5030223;28;20155;-59
2023/03/30 12:34:23;;;;;;;5.95;2.13;;;12.70;99.90;;;;;;5020770;28;20033;-57
2023/03/30 12:36:55;;;;;;;9.88;2.30;;;12.80;99.90;;;;;;5016850;28;20621;-59
2023/03/30 12:39:24;;;;;;;6.53;2.58;;;12.70;99.90;;;;;;5017905;28;20025;-55
2023/03/30 12:42:05;;;;;;;8.00;2.30;;;12.70;99.90;;;;;;5031095;28;20040;-57
2023/03/30 12:44:45;;;;;;;5.78;2.70;;;12.80;99.90;;;;;;5029208;28;20380;-54
2023/03/30 12:47:32;;;;;;;5.97;2.10;;;12.90;99.90;;;;;;5028582;28;20091;-56
2023/03/30 12:50:03;;;;;;;9.45;2.35;;;13.00;99.90;;;;;;5025550;28;20026;-58
2023/03/30 12:52:58;;;;;;;8.77;2.38;;;13.00;99.90;;;;;;5024334;28;20044;-59
2023/03/30 12:55:43;;;;;;;5.88;2.35;;;13.40;99.90;;;;;;5029442;28;20121;-57
2023/03/30 12:58:25;;;;;;;10.20;2.70;;;13.70;99.90;;;;;;5023136;28;20040;-56
2023/03/30 13:01:04;;;;;;;6.60;1.90;;;13.90;99.90;;;;;;5029078;28;20045;-57
2023/03/30 13:04:00;;;;;;;6.97;2.80;;;13.90;99.90;;;;;;5026547;28;20404;-56
2023/03/30 13:06:34;;;;;;;8.83;2.03;;;14.10;99.90;;;;;;5018424;28;20446;-54